WRC320 UKBB-UKDD
Flight info
| Callsign | WRC320 |
|---|---|
| Flight time | 0h 39m |
| Altitude | 31000 |
| Route | BASOR L33 DEMER M70 ORSUS |
| Aircraft | A320/M-SDE3FGHIRWY/LB1 |
Departure
| Time | 2026-05-05 20:16 |
|---|---|
| Airport | Boryspil International Airport (UKBB) |
Arrival
| Time | 2026-05-05 20:55 |
|---|---|
| Airport | Dnipro International Airport (UKDD) |
| Time | Latitude | Longitude | Altitude | Speed | Heading |
|---|---|---|---|---|---|
| 2026-05-05 19:58 | 50.35226 | 30.89894 | 415 ft | 0 kts | 274° |
| 2026-05-05 20:05 | 50.35225 | 30.89907 | 412 ft | 2 kts | 274° |
| 2026-05-05 20:05 | 50.35224 | 30.89934 | 411 ft | 2 kts | 274° |
| 2026-05-05 20:05 | 50.35223 | 30.89960 | 407 ft | 3 kts | 285° |
| 2026-05-05 20:06 | 50.35215 | 30.89985 | 413 ft | 3 kts | 322° |
| 2026-05-05 20:06 | 50.35201 | 30.89998 | 406 ft | 1 kts | 333° |
| 2026-05-05 20:06 | 50.35190 | 30.90009 | 406 ft | 2 kts | 323° |
| 2026-05-05 20:06 | 50.35176 | 30.90027 | 408 ft | 3 kts | 336° |
| 2026-05-05 20:07 | 50.35174 | 30.90029 | 408 ft | 0 kts | 342° |
| 2026-05-05 20:08 | 50.35180 | 30.90025 | 413 ft | 4 kts | 342° |
| 2026-05-05 20:09 | 50.35226 | 30.90021 | 415 ft | 10 kts | 359° |
| 2026-05-05 20:09 | 50.35312 | 30.90026 | 415 ft | 15 kts | 3° |
| 2026-05-05 20:09 | 50.35402 | 30.90034 | 415 ft | 10 kts | 5° |
| 2026-05-05 20:09 | 50.35454 | 30.90095 | 415 ft | 9 kts | 65° |
| 2026-05-05 20:10 | 50.35457 | 30.90185 | 415 ft | 8 kts | 91° |
| 2026-05-05 20:10 | 50.35484 | 30.90275 | 415 ft | 11 kts | 33° |
| 2026-05-05 20:10 | 50.35557 | 30.90287 | 408 ft | 11 kts | 3° |
| 2026-05-05 20:10 | 50.35658 | 30.90295 | 415 ft | 18 kts | 3° |
| 2026-05-05 20:11 | 50.35809 | 30.90306 | 415 ft | 23 kts | 2° |
| 2026-05-05 20:11 | 50.35968 | 30.90319 | 415 ft | 22 kts | 2° |
| 2026-05-05 20:11 | 50.36052 | 30.90355 | 415 ft | 7 kts | 38° |
| 2026-05-05 20:11 | 50.36053 | 30.90356 | 415 ft | 0 kts | 39° |
| 2026-05-05 20:13 | 50.36055 | 30.90358 | 415 ft | 2 kts | 39° |
| 2026-05-05 20:13 | 50.36081 | 30.90418 | 413 ft | 11 kts | 64° |
| 2026-05-05 20:14 | 50.36082 | 30.90515 | 415 ft | 8 kts | 109° |
| 2026-05-05 20:14 | 50.36039 | 30.90595 | 415 ft | 12 kts | 145° |
| 2026-05-05 20:14 | 50.35950 | 30.90636 | 418 ft | 14 kts | 178° |
| 2026-05-05 20:14 | 50.35903 | 30.90634 | 411 ft | 0 kts | 182° |
| 2026-05-05 20:15 | 50.35879 | 30.90633 | 417 ft | 16 kts | 182° |
| 2026-05-05 20:15 | 50.35574 | 30.90610 | 410 ft | 80 kts | 183° |
| 2026-05-05 20:15 | 50.34795 | 30.90552 | 420 ft | 141 kts | 183° |
| 2026-05-05 20:16 | 50.33711 | 30.90458 | 801 ft | 158 kts | 185° |
| 2026-05-05 20:16 | 50.32617 | 30.90315 | 1616 ft | 156 kts | 189° |
| 2026-05-05 20:16 | 50.31530 | 30.90153 | 2408 ft | 158 kts | 189° |
| 2026-05-05 20:16 | 50.30358 | 30.90014 | 2836 ft | 180 kts | 186° |
| 2026-05-05 20:17 | 50.29018 | 30.89911 | 3213 ft | 205 kts | 185° |
| 2026-05-05 20:17 | 50.27499 | 30.89814 | 3698 ft | 230 kts | 185° |
| 2026-05-05 20:17 | 50.25816 | 30.89717 | 4210 ft | 254 kts | 184° |
| 2026-05-05 20:17 | 50.24003 | 30.89622 | 4985 ft | 266 kts | 184° |
| 2026-05-05 20:18 | 50.22119 | 30.89529 | 5927 ft | 273 kts | 184° |
| 2026-05-05 20:18 | 50.20194 | 30.89435 | 6860 ft | 278 kts | 184° |
| 2026-05-05 20:18 | 50.18242 | 30.89269 | 7785 ft | 282 kts | 189° |
| 2026-05-05 20:18 | 50.16304 | 30.88670 | 8715 ft | 285 kts | 196° |
| 2026-05-05 20:19 | 50.14414 | 30.87822 | 9654 ft | 289 kts | 199° |
| 2026-05-05 20:19 | 50.12474 | 30.86853 | 10408 ft | 300 kts | 200° |
| 2026-05-05 20:19 | 50.10404 | 30.85808 | 10761 ft | 324 kts | 198° |
| 2026-05-05 20:19 | 50.08109 | 30.85196 | 11250 ft | 342 kts | 182° |
| 2026-05-05 20:20 | 50.05721 | 30.85597 | 11984 ft | 351 kts | 165° |
| 2026-05-05 20:20 | 50.03447 | 30.87040 | 12807 ft | 355 kts | 149° |
| 2026-05-05 20:20 | 50.01503 | 30.89377 | 13653 ft | 357 kts | 133° |
| 2026-05-05 20:20 | 49.99781 | 30.92234 | 14441 ft | 360 kts | 131° |
| 2026-05-05 20:21 | 49.98059 | 30.95078 | 15222 ft | 363 kts | 132° |
| 2026-05-05 20:21 | 49.96316 | 30.97935 | 15982 ft | 366 kts | 132° |
| 2026-05-05 20:21 | 49.94548 | 31.00815 | 16744 ft | 369 kts | 132° |
| 2026-05-05 20:21 | 49.92763 | 31.03713 | 17495 ft | 373 kts | 132° |
| 2026-05-05 20:22 | 49.90968 | 31.06636 | 18227 ft | 376 kts | 132° |
| 2026-05-05 20:22 | 49.89154 | 31.09594 | 18873 ft | 379 kts | 132° |
| 2026-05-05 20:22 | 49.87325 | 31.12566 | 19524 ft | 382 kts | 132° |
| 2026-05-05 20:22 | 49.85442 | 31.15507 | 20192 ft | 385 kts | 134° |
| 2026-05-05 20:23 | 49.83536 | 31.18342 | 20845 ft | 388 kts | 135° |
| 2026-05-05 20:23 | 49.81542 | 31.21237 | 21509 ft | 391 kts | 135° |
| 2026-05-05 20:23 | 49.79541 | 31.24123 | 22166 ft | 394 kts | 136° |
| 2026-05-05 20:23 | 49.77534 | 31.27023 | 22831 ft | 397 kts | 135° |
| 2026-05-05 20:24 | 49.75520 | 31.29951 | 23474 ft | 400 kts | 135° |
| 2026-05-05 20:24 | 49.73474 | 31.32942 | 24008 ft | 403 kts | 135° |
| 2026-05-05 20:24 | 49.71438 | 31.35931 | 24533 ft | 405 kts | 135° |
| 2026-05-05 20:24 | 49.69383 | 31.38948 | 25016 ft | 409 kts | 135° |
| 2026-05-05 20:25 | 49.67338 | 31.41945 | 25509 ft | 412 kts | 135° |
| 2026-05-05 20:25 | 49.65222 | 31.45034 | 25980 ft | 415 kts | 135° |
| 2026-05-05 20:25 | 49.63143 | 31.48066 | 26426 ft | 418 kts | 135° |
| 2026-05-05 20:25 | 49.61019 | 31.51164 | 26893 ft | 421 kts | 135° |
| 2026-05-05 20:26 | 49.58885 | 31.54270 | 27329 ft | 423 kts | 135° |
| 2026-05-05 20:26 | 49.56729 | 31.57403 | 27771 ft | 426 kts | 135° |
| 2026-05-05 20:26 | 49.54693 | 31.60741 | 28201 ft | 428 kts | 127° |
| 2026-05-05 20:26 | 49.53014 | 31.64535 | 28616 ft | 429 kts | 118° |
| 2026-05-05 20:27 | 49.51661 | 31.68661 | 29022 ft | 431 kts | 115° |
| 2026-05-05 20:27 | 49.50349 | 31.72779 | 29413 ft | 434 kts | 115° |
| 2026-05-05 20:27 | 49.49003 | 31.76971 | 29804 ft | 437 kts | 115° |
| 2026-05-05 20:27 | 49.47648 | 31.81173 | 30140 ft | 440 kts | 115° |
| 2026-05-05 20:28 | 49.46284 | 31.85397 | 30461 ft | 442 kts | 115° |
| 2026-05-05 20:28 | 49.44909 | 31.89651 | 30774 ft | 445 kts | 115° |
| 2026-05-05 20:28 | 49.43528 | 31.93912 | 30940 ft | 445 kts | 115° |
| 2026-05-05 20:28 | 49.42164 | 31.98117 | 30967 ft | 431 kts | 115° |
| 2026-05-05 20:29 | 49.40846 | 32.02169 | 30970 ft | 422 kts | 115° |
| 2026-05-05 20:29 | 49.38220 | 32.10112 | 30971 ft | 418 kts | 116° |
| 2026-05-05 20:30 | 49.35553 | 32.18065 | 30973 ft | 418 kts | 116° |
| 2026-05-05 20:30 | 49.32894 | 32.25975 | 30977 ft | 417 kts | 116° |
| 2026-05-05 20:31 | 49.30238 | 32.33907 | 30976 ft | 417 kts | 116° |
| 2026-05-05 20:31 | 49.27582 | 32.41810 | 30975 ft | 417 kts | 116° |
| 2026-05-05 20:32 | 49.24897 | 32.49759 | 30975 ft | 417 kts | 116° |
| 2026-05-05 20:32 | 49.22233 | 32.57604 | 30974 ft | 417 kts | 116° |
| 2026-05-05 20:33 | 49.19548 | 32.65511 | 30974 ft | 417 kts | 116° |
| 2026-05-05 20:33 | 49.16869 | 32.73381 | 30975 ft | 417 kts | 116° |
| 2026-05-05 20:34 | 49.14183 | 32.81230 | 30975 ft | 417 kts | 116° |
| 2026-05-05 20:34 | 49.11500 | 32.89072 | 30980 ft | 416 kts | 116° |
| 2026-05-05 20:34 | 49.10152 | 32.92995 | 30770 ft | 417 kts | 116° |
| 2026-05-05 20:35 | 49.08810 | 32.96890 | 30525 ft | 417 kts | 116° |
| 2026-05-05 20:35 | 49.07455 | 33.00813 | 30160 ft | 413 kts | 116° |
| 2026-05-05 20:35 | 49.06118 | 33.04681 | 29558 ft | 410 kts | 116° |
| 2026-05-05 20:35 | 49.04792 | 33.08516 | 29025 ft | 405 kts | 116° |
| 2026-05-05 20:36 | 49.03500 | 33.12253 | 28507 ft | 401 kts | 116° |
| 2026-05-05 20:36 | 49.02206 | 33.15995 | 27983 ft | 396 kts | 116° |
| 2026-05-05 20:36 | 49.00925 | 33.19691 | 27472 ft | 392 kts | 116° |
| 2026-05-05 20:36 | 48.99654 | 33.23345 | 26987 ft | 389 kts | 116° |
| 2026-05-05 20:37 | 48.98387 | 33.26970 | 26495 ft | 385 kts | 116° |
| 2026-05-05 20:37 | 48.97552 | 33.29350 | 26181 ft | 383 kts | 116° |
| 2026-05-05 20:37 | 48.95887 | 33.34100 | 25579 ft | 378 kts | 115° |
| 2026-05-05 20:37 | 48.94658 | 33.37619 | 25122 ft | 374 kts | 115° |
| 2026-05-05 20:38 | 48.93487 | 33.41079 | 24670 ft | 371 kts | 114° |
| 2026-05-05 20:38 | 48.92337 | 33.44580 | 24223 ft | 368 kts | 113° |
| 2026-05-05 20:38 | 48.91205 | 33.48067 | 23756 ft | 365 kts | 113° |
| 2026-05-05 20:38 | 48.90088 | 33.51513 | 23261 ft | 363 kts | 113° |
| 2026-05-05 20:39 | 48.88973 | 33.54936 | 22782 ft | 360 kts | 113° |
| 2026-05-05 20:39 | 48.87862 | 33.58321 | 22311 ft | 356 kts | 113° |
| 2026-05-05 20:39 | 48.86752 | 33.61684 | 21849 ft | 354 kts | 113° |
| 2026-05-05 20:39 | 48.85652 | 33.65006 | 21383 ft | 351 kts | 113° |
| 2026-05-05 20:40 | 48.84548 | 33.68334 | 20906 ft | 349 kts | 113° |
| 2026-05-05 20:40 | 48.83456 | 33.71619 | 20422 ft | 348 kts | 113° |
| 2026-05-05 20:40 | 48.82367 | 33.74890 | 19958 ft | 346 kts | 113° |
| 2026-05-05 20:40 | 48.81278 | 33.78159 | 19441 ft | 347 kts | 113° |
| 2026-05-05 20:41 | 48.80180 | 33.81462 | 18745 ft | 354 kts | 113° |
| 2026-05-05 20:41 | 48.79085 | 33.84749 | 18314 ft | 351 kts | 113° |
| 2026-05-05 20:41 | 48.77981 | 33.88054 | 17807 ft | 350 kts | 114° |
| 2026-05-05 20:41 | 48.76869 | 33.91370 | 17352 ft | 347 kts | 114° |
| 2026-05-05 20:42 | 48.76147 | 33.93519 | 17057 ft | 345 kts | 114° |
| 2026-05-05 20:42 | 48.75054 | 33.96769 | 16611 ft | 342 kts | 114° |
| 2026-05-05 20:42 | 48.73968 | 34.00000 | 16168 ft | 340 kts | 114° |
| 2026-05-05 20:42 | 48.72912 | 34.03142 | 15743 ft | 338 kts | 114° |
| 2026-05-05 20:43 | 48.71827 | 34.06366 | 15304 ft | 336 kts | 114° |
| 2026-05-05 20:43 | 48.70769 | 34.09514 | 14873 ft | 335 kts | 114° |
| 2026-05-05 20:43 | 48.69717 | 34.12645 | 14446 ft | 333 kts | 114° |
| 2026-05-05 20:43 | 48.68673 | 34.15740 | 14019 ft | 332 kts | 114° |
| 2026-05-05 20:44 | 48.67609 | 34.18880 | 13544 ft | 331 kts | 114° |
| 2026-05-05 20:44 | 48.66572 | 34.21936 | 13100 ft | 328 kts | 114° |
| 2026-05-05 20:44 | 48.65531 | 34.25004 | 12670 ft | 325 kts | 114° |
| 2026-05-05 20:44 | 48.64318 | 34.27889 | 12231 ft | 326 kts | 126° |
| 2026-05-05 20:45 | 48.61008 | 34.32581 | 11291 ft | 324 kts | 135° |
| 2026-05-05 20:45 | 48.59320 | 34.34845 | 10818 ft | 323 kts | 134° |
| 2026-05-05 20:45 | 48.57647 | 34.37095 | 10340 ft | 320 kts | 134° |
| 2026-05-05 20:46 | 48.56022 | 34.39284 | 10153 ft | 310 kts | 134° |
| 2026-05-05 20:46 | 48.54445 | 34.41402 | 10017 ft | 296 kts | 134° |
| 2026-05-05 20:46 | 48.52927 | 34.43433 | 9838 ft | 286 kts | 134° |
| 2026-05-05 20:46 | 48.51436 | 34.45437 | 9342 ft | 287 kts | 134° |
| 2026-05-05 20:47 | 48.49964 | 34.47415 | 8999 ft | 282 kts | 134° |
| 2026-05-05 20:47 | 48.48497 | 34.49390 | 8528 ft | 282 kts | 134° |
| 2026-05-05 20:47 | 48.47037 | 34.51354 | 8071 ft | 281 kts | 134° |
| 2026-05-05 20:47 | 48.45575 | 34.53321 | 7627 ft | 280 kts | 134° |
| 2026-05-05 20:48 | 48.44130 | 34.55264 | 7173 ft | 279 kts | 135° |
| 2026-05-05 20:48 | 48.42683 | 34.57203 | 6731 ft | 278 kts | 135° |
| 2026-05-05 20:48 | 48.41259 | 34.59112 | 6297 ft | 277 kts | 135° |
| 2026-05-05 20:48 | 48.39824 | 34.61038 | 5849 ft | 275 kts | 135° |
| 2026-05-05 20:49 | 48.38429 | 34.62910 | 5705 ft | 262 kts | 135° |
| 2026-05-05 20:49 | 48.37122 | 34.64714 | 5568 ft | 248 kts | 129° |
| 2026-05-05 20:49 | 48.36193 | 34.66829 | 5275 ft | 239 kts | 110° |
| 2026-05-05 20:49 | 48.35759 | 34.69225 | 4786 ft | 240 kts | 92° |
| 2026-05-05 20:50 | 48.35744 | 34.71713 | 4428 ft | 237 kts | 88° |
| 2026-05-05 20:50 | 48.35747 | 34.74185 | 4038 ft | 236 kts | 89° |
| 2026-05-05 20:50 | 48.35740 | 34.76658 | 3666 ft | 236 kts | 90° |
| 2026-05-05 20:50 | 48.35730 | 34.79170 | 3070 ft | 245 kts | 91° |
| 2026-05-05 20:51 | 48.35719 | 34.81731 | 2752 ft | 241 kts | 91° |
| 2026-05-05 20:51 | 48.35710 | 34.84191 | 2606 ft | 230 kts | 91° |
| 2026-05-05 20:51 | 48.35703 | 34.86534 | 2511 ft | 219 kts | 92° |
| 2026-05-05 20:51 | 48.35703 | 34.88774 | 2504 ft | 209 kts | 91° |
| 2026-05-05 20:52 | 48.35707 | 34.90897 | 2492 ft | 200 kts | 91° |
| 2026-05-05 20:52 | 48.35711 | 34.92939 | 2343 ft | 188 kts | 92° |
| 2026-05-05 20:52 | 48.35714 | 34.94844 | 2114 ft | 176 kts | 92° |
| 2026-05-05 20:52 | 48.35717 | 34.96620 | 1906 ft | 162 kts | 93° |
| 2026-05-05 20:53 | 48.35720 | 34.98235 | 1712 ft | 150 kts | 94° |
| 2026-05-05 20:53 | 48.35721 | 34.99776 | 1534 ft | 145 kts | 93° |
| 2026-05-05 20:53 | 48.35725 | 35.01281 | 1348 ft | 143 kts | 92° |
| 2026-05-05 20:53 | 48.35733 | 35.02762 | 1152 ft | 141 kts | 92° |
| 2026-05-05 20:54 | 48.35744 | 35.04217 | 962 ft | 138 kts | 91° |
| 2026-05-05 20:54 | 48.35758 | 35.05640 | 792 ft | 137 kts | 91° |
| 2026-05-05 20:54 | 48.35732 | 35.07060 | 629 ft | 135 kts | 92° |
| 2026-05-05 20:54 | 48.35726 | 35.08475 | 480 ft | 133 kts | 92° |
| 2026-05-05 20:55 | 48.35725 | 35.09593 | 467 ft | 68 kts | 89° |
| 2026-05-05 20:55 | 48.35726 | 35.09983 | 475 ft | 28 kts | 90° |
| 2026-05-05 20:55 | 48.35728 | 35.10270 | 477 ft | 27 kts | 89° |
| 2026-05-05 20:55 | 48.35731 | 35.10556 | 474 ft | 28 kts | 90° |
| 2026-05-05 20:56 | 48.35738 | 35.10795 | 471 ft | 12 kts | 61° |
| 2026-05-05 20:56 | 48.35818 | 35.10816 | 474 ft | 11 kts | 358° |
| 2026-05-05 20:56 | 48.35882 | 35.10814 | 471 ft | 7 kts | 359° |
| 2026-05-05 20:56 | 48.35929 | 35.10813 | 474 ft | 8 kts | 360° |
| 2026-05-05 20:57 | 48.36004 | 35.10812 | 478 ft | 13 kts | 359° |
| 2026-05-05 20:57 | 48.36101 | 35.10813 | 475 ft | 13 kts | 360° |
| 2026-05-05 20:57 | 48.36186 | 35.10776 | 484 ft | 11 kts | 334° |
| 2026-05-05 20:57 | 48.36257 | 35.10725 | 491 ft | 14 kts | 335° |
| 2026-05-05 20:58 | 48.36359 | 35.10650 | 490 ft | 17 kts | 334° |
| 2026-05-05 20:58 | 48.36458 | 35.10577 | 495 ft | 15 kts | 333° |
| 2026-05-05 20:58 | 48.36532 | 35.10486 | 487 ft | 13 kts | 306° |
| 2026-05-05 20:58 | 48.36573 | 35.10366 | 492 ft | 12 kts | 292° |
| 2026-05-05 20:59 | 48.36603 | 35.10256 | 490 ft | 11 kts | 292° |
| 2026-05-05 20:59 | 48.36641 | 35.10117 | 487 ft | 17 kts | 293° |
| 2026-05-05 20:59 | 48.36690 | 35.09945 | 493 ft | 19 kts | 292° |
| 2026-05-05 20:59 | 48.36743 | 35.09755 | 488 ft | 14 kts | 291° |
| 2026-05-05 21:00 | 48.36778 | 35.09682 | 490 ft | 8 kts | 327° |
| 2026-05-05 21:00 | 48.36808 | 35.09608 | 490 ft | 9 kts | 261° |
| 2026-05-05 21:00 | 48.36771 | 35.09555 | 491 ft | 0 kts | 216° |